Time;durP1;ratioP1;P1;durP2;ratioP2;P2;SDS_P1;SDS_P2;PMS_P1;PMS_P2;Temp;Humidity;BMP_temperature;BMP_pressure;BME280_temperature;BME280_humidity;BME280_pressure;Samples;Min_cycle;Max_cycle;Signal;HPM_P1;HPM_P2
2022/06/06 08:34:47;;;;;;;1.15;1.15;;;;;;;25.66;100.00;100948.13;2671324;36;20209;-64
2022/06/06 08:37:59;;;;;;;1.13;1.08;;;;;;;25.17;100.00;100943.31;2616126;54;20141;-65
2022/06/06 08:40:57;;;;;;;2.90;1.70;;;;;;;25.52;100.00;100941.78;2616777;39;20420;-65
2022/06/06 08:43:44;;;;;;;0.10;0.10;;;;;;;25.43;100.00;100945.53;2616251;46;20177;-66
2022/06/06 08:46:22;;;;;;;0.20;0.20;;;;;;;25.61;100.00;100956.66;2616800;54;20651;-65
2022/06/06 08:49:10;;;;;;;4.53;1.10;;;;;;;25.10;100.00;100949.50;2616715;54;20175;-65
2022/06/06 08:51:55;;;;;;;0.55;0.45;;;;;;;25.36;100.00;100939.28;2617033;54;20156;-65
2022/06/06 08:55:04;;;;;;;0.00;0.00;;;;;;;25.12;100.00;100947.50;2616667;54;20141;-66
2022/06/06 08:57:54;;;;;;;0.43;0.43;;;;;;;25.54;100.00;100945.09;2616830;54;20149;-64
2022/06/06 09:00:43;;;;;;;0.30;0.30;;;;;;;25.63;100.00;100950.34;2617335;54;20141;-65
2022/06/06 09:03:57;;;;;;;0.38;0.38;;;;;;;25.71;100.00;100950.25;2617404;54;20698;-66
2022/06/06 09:07:06;;;;;;;0.52;0.32;;;;;;;26.61;100.00;100948.84;2617168;54;20145;-66
2022/06/06 09:10:11;;;;;;;0.98;0.98;;;;;;;25.81;100.00;100942.78;2616491;54;20142;-66
2022/06/06 09:13:14;;;;;;;0.40;0.28;;;;;;;26.80;100.00;100950.06;2616996;54;20134;-67
2022/06/06 09:16:17;;;;;;;0.05;0.05;;;;;;;27.49;100.00;100936.84;2616977;54;20133;-65
2022/06/06 09:19:20;;;;;;;0.98;0.98;;;;;;;28.10;100.00;100946.63;2616682;47;20181;-66
2022/06/06 09:22:11;;;;;;;3.50;0.40;;;;;;;28.53;99.36;100951.63;2617006;54;20149;-66
2022/06/06 09:25:14;;;;;;;0.30;0.30;;;;;;;27.80;98.79;100950.59;2617203;54;20142;-65
2022/06/06 09:28:14;;;;;;;0.00;0.00;;;;;;;27.74;100.00;100956.69;2617571;39;20563;-65
2022/06/06 09:31:14;;;;;;;0.10;0.10;;;;;;;28.28;100.00;100949.56;2616890;54;20141;-65
2022/06/06 09:34:17;;;;;;;0.05;0.05;;;;;;;27.39;100.00;100945.19;2617130;54;20134;-65
2022/06/06 09:36:49;;;;;;;0.47;0.43;;;;;;;27.44;100.00;100954.22;2616486;54;20141;-66
2022/06/06 09:39:56;;;;;;;0.20;0.20;;;;;;;27.67;100.00;100947.84;2616551;54;20168;-65
2022/06/06 09:42:51;;;;;;;0.50;0.50;;;;;;;27.59;94.98;100948.00;2616184;54;20150;-65
2022/06/06 09:45:31;;;;;;;0.00;0.00;;;;;;;27.86;100.00;100945.28;2616366;54;20152;-65
2022/06/06 09:48:46;;;;;;;0.25;0.25;;;;;;;27.40;100.00;100944.97;2616437;51;20164;-65
2022/06/06 09:51:49;;;;;;;0.00;0.00;;;;;;;27.73;100.00;100931.88;2615881;46;20157;-65
2022/06/06 10:01:25;;;;;;;0.22;0.22;;;;;;;28.02;100.00;100933.44;2615986;54;20141;-65
2022/06/06 10:04:27;;;;;;;0.00;0.00;;;;;;;28.35;95.64;100947.72;2616333;54;20148;-65
2022/06/06 10:07:42;;;;;;;0.25;0.25;;;;;;;28.47;94.50;100937.28;2616083;47;20587;-65
2022/06/06 10:10:44;;;;;;;0.55;0.40;;;;;;;28.67;99.00;100926.59;2616559;54;20149;-65
2022/06/06 10:13:34;;;;;;;1.17;0.22;;;;;;;28.12;97.24;100925.09;2615224;54;20645;-64
2022/06/06 10:16:51;;;;;;;0.03;0.03;;;;;;;28.03;100.00;100929.75;2616235;54;20220;-64
2022/06/06 10:19:40;;;;;;;0.43;0.20;;;;;;;27.70;97.02;100928.78;2615648;54;20148;-65
2022/06/06 10:54:52;;;;;;;0.00;0.00;;;;;;;29.63;87.07;100919.75;2621110;54;21128;-66
2022/06/06 10:57:52;;;;;;;0.10;0.10;;;;;;;29.56;85.94;100913.59;2918173;36;20219;-66
2022/06/06 11:00:29;;;;;;;2.35;1.77;;;;;;;29.49;75.09;100910.94;2666608;36;20208;-65
2022/06/06 11:03:21;;;;;;;0.10;0.10;;;;;;;28.50;89.97;100904.81;2621041;54;20155;-65
2022/06/06 11:06:16;;;;;;;0.45;0.45;;;;;;;27.99;88.65;100915.16;2620983;54;20141;-65
2022/06/06 11:09:09;;;;;;;0.40;0.40;;;;;;;27.95;90.29;100902.41;2621052;54;20142;-65
2022/06/06 11:12:22;;;;;;;0.10;0.10;;;;;;;27.87;90.21;100908.75;2620701;54;20160;-66
2022/06/06 11:14:56;;;;;;;0.03;0.03;;;;;;;28.20;94.56;100903.56;2693980;36;20156;-67
2022/06/06 11:17:58;;;;;;;0.00;0.00;;;;;;;28.63;88.14;100899.50;2620050;54;20265;-67
2022/06/06 11:21:14;;;;;;;0.10;0.10;;;;;;;29.02;90.30;100903.19;2620916;54;20145;-68
2022/06/06 11:23:50;;;;;;;0.10;0.10;;;;;;;28.58;81.66;100901.13;2620917;47;20681;-66
2022/06/06 11:26:45;;;;;;;0.00;0.00;;;;;;;28.63;93.22;100904.00;2620862;54;20144;-66
2022/06/06 11:29:50;;;;;;;0.00;0.00;;;;;;;28.23;87.05;100900.47;2620976;51;20145;-66
2022/06/06 11:32:52;;;;;;;0.20;0.20;;;;;;;28.04;96.99;100895.88;2620691;46;20164;-65
2022/06/06 11:35:31;;;;;;;0.10;0.10;;;;;;;28.15;95.38;100876.63;2617597;39;20540;-66
2022/06/06 11:38:41;;;;;;;0.10;0.00;;;;;;;27.86;93.51;100886.59;2616991;54;20257;-66
2022/06/06 11:41:28;;;;;;;2.53;0.80;;;;;;;27.51;94.65;100897.50;2617050;54;20133;-66
2022/06/06 11:44:18;;;;;;;0.10;0.10;;;;;;;27.43;100.00;100895.81;2617223;47;20142;-66
2022/06/06 11:47:24;;;;;;;0.00;0.00;;;;;;;27.23;100.00;100890.38;2617563;39;20715;-67
2022/06/06 11:50:32;;;;;;;0.00;0.00;;;;;;;27.47;100.00;100891.75;2616645;47;20153;-66
2022/06/06 11:53:52;;;;;;;0.88;0.43;;;;;;;27.12;100.00;100890.91;2615883;47;20185;-68
2022/06/06 11:56:44;;;;;;;2.15;1.17;;;;;;;27.44;100.00;100886.81;2618209;39;20552;-66
2022/06/06 11:59:48;;;;;;;0.10;0.10;;;;;;;28.56;100.00;100882.66;2617322;54;20142;-66
2022/06/06 12:02:41;;;;;;;0.00;0.00;;;;;;;29.23;91.19;100879.72;2617196;54;20180;-66
2022/06/06 12:05:43;;;;;;;0.20;0.20;;;;;;;30.00;81.25;100878.84;2617442;54;20153;-66
2022/06/06 12:08:42;;;;;;;0.00;0.00;;;;;;;32.33;68.05;100864.50;2617404;54;20141;-65
2022/06/06 12:11:42;;;;;;;0.75;0.10;;;;;;;33.72;55.52;100866.31;2617522;47;20152;-66
2022/06/06 12:14:40;;;;;;;0.20;0.20;;;;;;;34.28;57.02;100854.69;2617415;54;20145;-66
2022/06/06 12:17:22;;;;;;;0.00;0.00;;;;;;;34.29;51.45;100854.47;2617545;54;20168;-66
2022/06/06 12:20:18;;;;;;;0.20;0.20;;;;;;;34.21;51.96;100854.03;2617215;47;20164;-66
2022/06/06 12:23:08;;;;;;;0.00;0.00;;;;;;;33.52;51.24;100852.44;2616550;47;20677;-66
2022/06/06 12:26:02;;;;;;;0.05;0.05;;;;;;;34.33;48.67;100843.19;2617693;54;20142;-66
2022/06/06 12:29:13;;;;;;;0.10;0.10;;;;;;;35.06;49.37;100841.06;2617524;54;20146;-65
2022/06/06 12:32:04;;;;;;;0.17;0.17;;;;;;;34.17;47.03;100834.84;2617513;49;20133;-66
2022/06/06 12:34:44;;;;;;;0.00;0.00;;;;;;;34.94;44.37;100828.75;2617643;47;20134;-67
2022/06/06 12:37:20;;;;;;;0.00;0.00;;;;;;;33.72;46.80;100818.69;2617449;54;20168;-67
2022/06/06 12:40:03;;;;;;;0.00;0.00;;;;;;;34.06;48.17;100826.81;2617178;47;20152;-67
2022/06/06 12:42:44;;;;;;;0.00;0.00;;;;;;;33.63;47.08;100825.47;2617782;39;20562;-67
2022/06/06 12:45:42;;;;;;;0.98;0.30;;;;;;;33.21;47.91;100832.16;2616985;54;20176;-67
2022/06/06 12:48:42;;;;;;;0.20;0.20;;;;;;;34.40;49.13;100830.34;2616977;54;20188;-67
2022/06/06 12:51:22;;;;;;;0.22;0.20;;;;;;;34.35;46.06;100835.66;2617112;50;20145;-67
2022/06/06 12:54:16;;;;;;;1.55;0.20;;;;;;;33.16;46.51;100850.88;2617473;54;20168;-66
2022/06/06 12:56:59;;;;;;;0.00;0.00;;;;;;;33.25;47.93;100838.72;2617520;54;20141;-66
2022/06/06 12:59:49;;;;;;;0.00;0.00;;;;;;;33.61;46.36;100835.66;2617376;54;20141;-64
2022/06/06 13:02:38;;;;;;;0.13;0.13;;;;;;;34.15;45.18;100838.84;2617513;54;20149;-67
2022/06/06 13:05:33;;;;;;;0.03;0.03;;;;;;;33.78;45.97;100831.16;2617471;54;20142;-67
2022/06/06 13:08:28;;;;;;;0.28;0.28;;;;;;;33.61;46.27;100834.84;2617456;54;20148;-67
2022/06/06 13:11:16;;;;;;;0.00;0.00;;;;;;;34.00;46.75;100823.22;2617408;54;20677;-67
2022/06/06 13:14:07;;;;;;;0.10;0.10;;;;;;;35.18;44.08;100827.50;2617519;54;20145;-66
2022/06/06 13:16:52;;;;;;;0.10;0.10;;;;;;;34.96;43.09;100818.53;2617955;39;20573;-67
2022/06/06 13:19:42;;;;;;;0.43;0.17;;;;;;;32.93;46.84;100828.34;2617375;54;20145;-66
2022/06/06 13:22:25;;;;;;;1.20;0.43;;;;;;;31.06;50.61;100842.16;2617339;54;20146;-66
2022/06/06 13:25:19;;;;;;;0.10;0.10;;;;;;;29.49;60.37;100837.94;2616979;54;20145;-66
2022/06/06 13:27:59;;;;;;;0.00;0.00;;;;;;;28.22;73.63;100846.28;2616301;54;20148;-68
2022/06/06 13:30:36;;;;;;;0.40;0.25;;;;;;;27.82;83.25;100842.66;2615950;54;20149;-68
2022/06/06 13:33:40;;;;;;;3.30;0.40;;;;;;;26.69;100.00;100854.69;2661785;36;20189;-67
2022/06/06 13:36:26;;;;;;;0.28;0.28;;;;;;;26.47;100.00;100868.06;2615745;54;20153;-67
2022/06/06 13:39:07;;;;;;;0.15;0.15;;;;;;;26.23;100.00;100876.44;2615772;54;20141;-67
2022/06/06 13:41:49;;;;;;;0.00;0.00;;;;;;;25.84;100.00;100890.06;2615878;54;20213;-67
2022/06/06 13:44:40;;;;;;;0.00;0.00;;;;;;;25.56;100.00;100911.19;2616508;54;20192;-66
2022/06/06 13:47:23;;;;;;;0.20;0.13;;;;;;;25.72;100.00;100888.09;2617222;54;20134;-66
2022/06/06 13:50:10;;;;;;;0.05;0.05;;;;;;;25.45;100.00;100887.72;2617137;54;20137;-66
2022/06/06 13:53:05;;;;;;;6.30;0.75;;;;;;;25.27;100.00;100889.09;2617124;54;20180;-66
2022/06/06 13:55:37;;;;;;;1.23;0.65;;;;;;;25.15;100.00;100886.06;2617368;54;20142;-67
2022/06/06 13:58:37;;;;;;;3.03;0.60;;;;;;;26.24;100.00;100877.25;2617102;54;20141;-66
2022/06/06 14:01:21;;;;;;;0.28;0.28;;;;;;;28.04;100.00;100862.03;2616978;54;20239;-67
2022/06/06 14:04:14;;;;;;;0.75;0.17;;;;;;;27.79;100.00;100860.91;2617117;54;20684;-66
2022/06/06 14:07:11;;;;;;;0.70;0.32;;;;;;;28.69;97.56;100857.81;2617251;47;20171;-68
2022/06/06 14:09:46;;;;;;;0.85;0.60;;;;;;;27.15;100.00;100863.06;2616515;47;20141;-67
2022/06/06 14:12:29;;;;;;;3.33;0.57;;;;;;;27.05;100.00;100855.41;2617067;54;20140;-67
2022/06/06 14:15:04;;;;;;;0.40;0.38;;;;;;;27.90;100.00;100861.16;2616813;47;20148;-66
2022/06/06 14:17:39;;;;;;;0.35;0.35;;;;;;;28.66;100.00;100855.53;2616947;54;20140;-66
2022/06/06 14:20:17;;;;;;;0.05;0.03;;;;;;;29.08;95.89;100862.28;2616918;54;20145;-67
2022/06/06 14:22:48;;;;;;;0.03;0.03;;;;;;;29.54;92.61;100854.13;2617110;46;20181;-65
2022/06/06 14:25:21;;;;;;;0.30;0.30;;;;;;;28.76;94.65;100853.31;2616904;54;20149;-66
2022/06/06 14:27:52;;;;;;;0.40;0.40;;;;;;;29.64;86.92;100844.66;2617020;47;20149;-66
2022/06/06 14:30:32;;;;;;;0.22;0.22;;;;;;;29.73;83.91;100848.69;2616847;54;20137;-67
2022/06/06 14:33:04;;;;;;;0.10;0.10;;;;;;;29.79;82.19;100843.53;2617319;54;20148;-68
2022/06/06 14:35:38;;;;;;;6.65;0.30;;;;;;;29.27;83.37;100837.34;2617217;54;20142;-66
2022/06/06 14:38:21;;;;;;;0.05;0.05;;;;;;;28.79;84.48;100826.16;2617982;31;20600;-66
2022/06/06 14:40:58;;;;;;;0.17;0.10;;;;;;;29.31;82.39;100821.75;2617038;54;20141;-66
2022/06/06 14:43:33;;;;;;;0.35;0.35;;;;;;;28.93;95.29;100821.63;2616762;54;20142;-66
2022/06/06 14:46:05;;;;;;;0.60;0.60;;;;;;;28.38;100.00;100819.19;2616725;54;20141;-66
2022/06/06 14:48:41;;;;;;;2.05;0.70;;;;;;;28.41;100.00;100825.16;2616822;54;20177;-66
2022/06/06 14:51:14;;;;;;;1.02;0.90;;;;;;;28.52;98.69;100824.53;2616460;54;20138;-67
2022/06/06 14:54:02;;;;;;;0.00;0.00;;;;;;;29.61;89.24;100812.16;2616927;54;20197;-67
2022/06/06 14:56:38;;;;;;;0.57;0.57;;;;;;;30.34;78.23;100818.69;2617465;39;20542;-66
2022/06/06 14:59:14;;;;;;;3.08;0.38;;;;;;;30.21;77.68;100816.94;2617435;39;20551;-67
2022/06/06 15:01:49;;;;;;;0.30;0.30;;;;;;;30.51;73.10;100813.63;2617427;39;20900;-66
2022/06/06 15:04:24;;;;;;;0.38;0.38;;;;;;;30.25;70.65;100824.53;2616926;54;20148;-66
2022/06/06 15:06:58;;;;;;;0.00;0.00;;;;;;;31.27;70.13;100814.09;2617051;54;20141;-66
2022/06/06 15:09:41;;;;;;;0.05;0.05;;;;;;;31.05;67.98;100818.28;2617394;54;20141;-66
2022/06/06 15:12:23;;;;;;;0.60;0.60;;;;;;;30.63;68.02;100818.06;2617638;54;20678;-66
2022/06/06 15:14:58;;;;;;;0.13;0.13;;;;;;;31.43;65.31;100818.84;2617757;54;20141;-66
2022/06/06 15:17:30;;;;;;;0.00;0.00;;;;;;;31.30;63.78;100823.53;2617777;54;20149;-67
2022/06/06 15:20:03;;;;;;;0.10;0.10;;;;;;;31.74;60.74;100831.25;2617897;47;20206;-66
2022/06/06 15:22:37;;;;;;;0.13;0.10;;;;;;;31.26;59.26;100833.06;2617828;54;20669;-66
2022/06/06 15:25:08;;;;;;;0.28;0.28;;;;;;;30.79;62.54;100845.31;2617673;54;20134;-66
2022/06/06 15:27:59;;;;;;;0.38;0.30;;;;;;;31.07;63.29;100849.19;2617736;54;20153;-67
2022/06/06 15:30:33;;;;;;;0.68;0.25;;;;;;;31.26;62.26;100846.47;2617522;54;20142;-66
2022/06/06 15:33:16;;;;;;;0.00;0.00;;;;;;;32.15;60.43;100837.72;2618107;39;20587;-66
2022/06/06 15:35:55;;;;;;;0.05;0.05;;;;;;;30.89;67.83;100848.31;2617668;47;20150;-66
2022/06/06 15:38:49;;;;;;;1.10;0.45;;;;;;;31.48;64.09;100843.13;2617701;54;20134;-67
2022/06/06 15:41:28;;;;;;;1.65;0.65;;;;;;;30.86;67.45;100849.56;2617694;54;21064;-65
2022/06/06 15:44:06;;;;;;;0.00;0.00;;;;;;;31.22;69.28;100847.97;2617610;54;20148;-66
2022/06/06 15:46:59;;;;;;;0.00;0.00;;;;;;;31.97;66.68;100852.81;2617763;47;20158;-65
2022/06/06 15:49:51;;;;;;;0.00;0.00;;;;;;;31.51;67.92;100850.72;2616961;54;20185;-65
2022/06/06 15:52:40;;;;;;;0.00;0.00;;;;;;;31.97;66.11;100850.16;2617475;54;20173;-66
2022/06/06 15:55:18;;;;;;;0.17;0.17;;;;;;;31.21;72.66;100865.94;2617633;54;20665;-66
2022/06/06 15:57:58;;;;;;;1.75;0.52;;;;;;;31.36;68.55;100868.25;2617556;54;20141;-65
2022/06/06 16:00:39;;;;;;;0.17;0.17;;;;;;;30.47;75.14;100871.34;2617506;54;20148;-66
2022/06/06 16:03:38;;;;;;;0.55;0.55;;;;;;;30.96;73.06;100879.38;2617619;47;20146;-66
2022/06/06 16:06:11;;;;;;;0.55;0.55;;;;;;;31.51;68.66;100876.72;2617900;39;20555;-67
2022/06/06 16:08:52;;;;;;;0.40;0.40;;;;;;;30.75;72.21;100890.50;2616211;47;20150;-66
2022/06/06 16:11:32;;;;;;;1.17;0.88;;;;;;;30.97;72.88;100889.06;2616172;54;20142;-66
2022/06/06 16:14:18;;;;;;;1.58;0.35;;;;;;;31.02;74.20;100891.09;2615983;47;20599;-67
2022/06/06 16:16:54;;;;;;;0.00;0.00;;;;;;;31.16;79.74;100889.94;2615939;47;20150;-67
2022/06/06 16:19:33;;;;;;;0.63;0.63;;;;;;;29.75;84.09;100893.97;2616627;47;20156;-65
2022/06/06 16:22:13;;;;;;;0.00;0.00;;;;;;;29.08;93.44;100902.38;2617378;54;20658;-67
2022/06/06 16:24:50;;;;;;;0.32;0.32;;;;;;;28.85;98.25;100907.34;2617094;54;20145;-66
2022/06/06 16:27:24;;;;;;;0.52;0.52;;;;;;;28.12;100.00;100923.25;2617515;47;20148;-65
2022/06/06 16:30:02;;;;;;;0.00;0.00;;;;;;;28.02;100.00;100921.94;2617412;54;20160;-66
2022/06/06 16:32:44;;;;;;;0.08;0.08;;;;;;;26.99;100.00;100925.44;2617583;54;20142;-66
2022/06/06 16:35:32;;;;;;;0.68;0.68;;;;;;;26.48;100.00;100925.56;2617607;54;20141;-66
2022/06/06 16:38:09;;;;;;;0.60;0.60;;;;;;;25.90;100.00;100917.75;2617475;54;20142;-66
2022/06/06 16:40:55;;;;;;;0.35;0.35;;;;;;;25.56;100.00;100916.50;2617469;47;20142;-66
2022/06/06 16:49:37;;;;;;;1.38;0.52;;;;;;;25.91;100.00;100930.88;2617178;47;20184;-66
2022/06/06 16:52:20;;;;;;;1.55;1.10;;;;;;;25.50;100.00;100938.47;2617938;39;20596;-66
2022/06/06 16:55:00;;;;;;;1.30;0.88;;;;;;;25.43;100.00;100932.25;2616933;54;20138;-66
2022/06/06 16:57:41;;;;;;;1.65;0.38;;;;;;;25.55;100.00;100930.81;2617668;54;20145;-65
2022/06/06 17:00:22;;;;;;;1.90;1.83;;;;;;;25.53;100.00;100932.81;2617333;47;20265;-65
2022/06/06 17:02:57;;;;;;;0.22;0.22;;;;;;;25.40;100.00;100932.59;2617465;47;20140;-65
2022/06/06 17:08:33;;;;;;;0.05;0.05;;;;;;;25.45;100.00;100924.91;2616950;54;20138;-66
2022/06/06 17:11:14;;;;;;;0.40;0.40;;;;;;;25.69;100.00;100930.97;2616381;54;20685;-67
2022/06/06 17:13:47;;;;;;;0.15;0.15;;;;;;;25.42;100.00;100927.94;2616808;51;20156;-67
2022/06/06 17:16:33;;;;;;;1.35;0.70;;;;;;;25.07;100.00;100924.16;2617029;54;20142;-67
2022/06/06 17:19:07;;;;;;;3.20;1.13;;;;;;;24.92;100.00;100925.94;2617067;46;20156;-66
2022/06/06 17:21:46;;;;;;;0.75;0.75;;;;;;;25.03;100.00;100943.28;2617127;54;20141;-66
2022/06/06 17:24:36;;;;;;;0.08;0.08;;;;;;;24.94;100.00;100949.66;2616851;54;20141;-66
2022/06/06 17:27:19;;;;;;;0.28;0.25;;;;;;;25.21;100.00;100934.97;2616581;54;20158;-66
2022/06/06 17:30:05;;;;;;;0.00;0.00;;;;;;;24.93;100.00;100946.19;2616713;54;20149;-66
2022/06/06 17:32:38;;;;;;;0.22;0.22;;;;;;;24.53;100.00;100941.97;2616669;47;20670;-66
2022/06/06 17:35:22;;;;;;;0.30;0.30;;;;;;;24.87;100.00;100940.78;2616822;54;20148;-66
2022/06/06 17:38:16;;;;;;;0.10;0.10;;;;;;;24.62;100.00;100943.59;2616712;54;20142;-66
2022/06/06 17:41:07;;;;;;;0.52;0.50;;;;;;;24.59;100.00;100951.06;2616731;54;20213;-67
2022/06/06 17:43:56;;;;;;;0.88;0.75;;;;;;;24.42;100.00;100947.72;2616860;54;20150;-65
2022/06/06 17:46:36;;;;;;;0.00;0.00;;;;;;;24.72;100.00;100948.63;2616723;54;20153;-65
2022/06/06 17:49:29;;;;;;;1.77;1.67;;;;;;;24.50;100.00;100952.97;2616616;54;20177;-65
2022/06/06 17:52:12;;;;;;;2.40;0.77;;;;;;;24.11;100.00;100947.66;2616568;54;20137;-65
2022/06/06 17:54:56;;;;;;;0.32;0.22;;;;;;;24.47;100.00;100957.78;2616421;54;20674;-66
2022/06/06 17:57:40;;;;;;;0.30;0.30;;;;;;;24.52;100.00;100956.25;2616746;54;20404;-66
2022/06/06 18:00:18;;;;;;;0.20;0.20;;;;;;;24.47;100.00;100960.44;2617342;54;20153;-66
2022/06/06 18:03:29;;;;;;;0.47;0.47;;;;;;;24.66;100.00;100966.09;2617563;50;20156;-66
2022/06/06 18:06:22;;;;;;;0.73;0.52;;;;;;;24.06;100.00;100967.75;2616906;54;20156;-66
2022/06/06 18:09:39;;;;;;;0.52;0.52;;;;;;;24.06;100.00;100981.03;2617566;54;20164;-65
2022/06/06 18:12:32;;;;;;;0.17;0.17;;;;;;;23.74;100.00;100990.75;2617414;54;20148;-66
2022/06/06 18:15:15;;;;;;;0.10;0.10;;;;;;;23.69;100.00;100987.78;2617335;47;20141;-66
2022/06/06 18:17:53;;;;;;;0.93;0.77;;;;;;;23.56;100.00;101000.72;2616905;47;20141;-65
2022/06/06 18:20:33;;;;;;;0.00;0.00;;;;;;;23.24;100.00;101004.22;2617583;54;20149;-65
2022/06/06 18:23:07;;;;;;;0.00;0.00;;;;;;;23.37;100.00;100994.94;2617498;47;20149;-66
2022/06/06 18:25:42;;;;;;;0.00;0.00;;;;;;;23.47;100.00;100980.53;2617007;54;20145;-66
2022/06/06 18:28:20;;;;;;;0.20;0.20;;;;;;;23.66;100.00;100997.91;2616973;54;20237;-66
2022/06/06 18:30:54;;;;;;;0.00;0.00;;;;;;;23.51;100.00;101005.69;2616747;49;20148;-65
2022/06/06 18:33:28;;;;;;;0.00;0.00;;;;;;;23.81;100.00;101006.78;2616646;54;20232;-65
2022/06/06 18:35:59;;;;;;;0.25;0.25;;;;;;;23.71;100.00;101004.31;2616832;54;20155;-66
2022/06/06 18:38:35;;;;;;;4.10;3.88;;;;;;;24.01;100.00;101005.41;2616888;54;20142;-65
2022/06/06 18:41:08;;;;;;;0.45;0.45;;;;;;;24.06;100.00;101005.72;2616726;47;20141;-67
2022/06/06 18:43:42;;;;;;;0.68;0.52;;;;;;;23.83;100.00;101018.06;2617022;54;20149;-67
2022/06/06 18:46:15;;;;;;;0.28;0.28;;;;;;;23.85;100.00;101016.06;2617280;54;20141;-67
2022/06/06 18:49:05;;;;;;;0.00;0.00;;;;;;;23.98;100.00;101018.16;2618094;31;20611;-66
2022/06/06 18:51:45;;;;;;;0.47;0.40;;;;;;;23.58;100.00;101014.63;2617250;54;20152;-66
2022/06/06 18:54:20;;;;;;;0.00;0.00;;;;;;;23.53;100.00;101014.31;2617915;39;20556;-66
2022/06/06 18:56:58;;;;;;;0.65;0.52;;;;;;;23.65;100.00;101012.97;2617590;54;20137;-67
2022/06/06 18:59:36;;;;;;;0.10;0.10;;;;;;;23.36;100.00;101012.63;2617440;54;20152;-65
2022/06/06 19:02:19;;;;;;;0.00;0.00;;;;;;;24.06;100.00;101015.50;2616944;54;20145;-66
2022/06/06 19:04:52;;;;;;;1.63;0.65;;;;;;;23.26;100.00;101023.41;2617322;54;20168;-66
2022/06/06 19:07:32;;;;;;;0.20;0.20;;;;;;;23.13;100.00;101019.59;2618019;54;20245;-66
2022/06/06 19:10:08;;;;;;;0.15;0.15;;;;;;;23.24;100.00;101006.84;2617458;54;20140;-66
2022/06/06 19:12:41;;;;;;;0.10;0.00;;;;;;;23.38;100.00;101004.53;2617284;54;20171;-65
2022/06/06 19:15:33;;;;;;;0.50;0.50;;;;;;;23.27;100.00;101006.53;2617470;49;20148;-66
2022/06/06 19:18:13;;;;;;;3.78;1.83;;;;;;;23.00;100.00;101013.97;2617207;47;20225;-66
2022/06/06 19:20:49;;;;;;;0.65;0.22;;;;;;;22.92;100.00;101012.16;2617250;54;20149;-66
2022/06/06 19:23:24;;;;;;;0.05;0.05;;;;;;;22.82;100.00;101014.97;2617351;54;20140;-65
2022/06/06 19:25:58;;;;;;;2.38;1.20;;;;;;;23.00;100.00;101006.03;2617292;54;20145;-66
2022/06/06 19:28:35;;;;;;;6.18;0.82;;;;;;;22.93;100.00;101005.03;2617375;54;20149;-66
2022/06/06 19:31:28;;;;;;;0.50;0.50;;;;;;;22.95;100.00;101000.44;2617243;47;20273;-65
2022/06/06 19:34:01;;;;;;;1.35;1.25;;;;;;;22.46;100.00;100996.84;2617235;47;20697;-66
2022/06/06 19:36:34;;;;;;;2.55;1.90;;;;;;;22.46;100.00;100994.19;2617339;54;20146;-66
2022/06/06 19:39:18;;;;;;;0.65;0.60;;;;;;;22.70;100.00;101003.03;2617371;54;20134;-67
2022/06/06 19:41:49;;;;;;;0.00;0.00;;;;;;;22.75;100.00;100999.88;2617232;54;20140;-67
2022/06/06 19:44:24;;;;;;;0.55;0.55;;;;;;;22.68;100.00;100996.22;2617053;54;20165;-66
2022/06/06 19:47:03;;;;;;;0.75;0.75;;;;;;;22.18;100.00;100996.25;2617071;54;20141;-67
2022/06/06 19:49:36;;;;;;;0.00;0.00;;;;;;;22.69;100.00;100988.16;2617053;54;20222;-66
2022/06/06 19:52:13;;;;;;;1.80;1.63;;;;;;;22.34;100.00;100994.50;2617222;47;20148;-66
2022/06/06 19:54:46;;;;;;;0.15;0.15;;;;;;;22.39;100.00;100986.06;2617733;39;20542;-66
2022/06/06 19:57:19;;;;;;;0.90;0.90;;;;;;;22.41;100.00;100981.47;2617190;54;20149;-66
2022/06/06 19:59:54;;;;;;;0.25;0.25;;;;;;;22.17;100.00;100984.03;2617113;54;20164;-65
2022/06/06 20:02:30;;;;;;;0.00;0.00;;;;;;;22.57;100.00;100984.13;2617402;47;20156;-66
2022/06/06 20:05:09;;;;;;;1.13;1.02;;;;;;;22.46;100.00;100981.81;2617208;54;20148;-66
2022/06/06 20:07:43;;;;;;;2.05;1.58;;;;;;;22.11;100.00;100988.13;2617268;54;20145;-66
2022/06/06 20:10:28;;;;;;;3.08;1.23;;;;;;;22.17;100.00;100991.97;2617383;54;20156;-66
2022/06/06 20:13:02;;;;;;;0.73;0.73;;;;;;;22.60;100.00;100986.44;2617326;54;20142;-67
2022/06/06 20:15:34;;;;;;;2.25;2.10;;;;;;;22.64;100.00;100982.50;2617035;54;20149;-66
2022/06/06 20:18:08;;;;;;;1.65;0.70;;;;;;;22.88;100.00;100979.06;2617128;54;20141;-66
2022/06/06 20:20:46;;;;;;;0.22;0.03;;;;;;;23.06;100.00;100974.44;2617066;54;20172;-66
2022/06/06 20:23:27;;;;;;;1.73;1.42;;;;;;;22.84;100.00;100972.44;2617062;47;20153;-66
2022/06/06 20:25:59;;;;;;;1.00;0.95;;;;;;;22.63;100.00;100967.59;2617220;54;20134;-66
2022/06/06 20:28:33;;;;;;;1.02;1.00;;;;;;;22.42;100.00;100967.25;2616639;47;20257;-65
2022/06/06 20:34:03;;;;;;;0.25;0.25;;;;;;;22.87;100.00;100988.00;2616857;54;20145;-66
2022/06/06 20:36:36;;;;;;;0.47;0.47;;;;;;;22.76;100.00;100981.22;2617209;39;20548;-66
2022/06/06 20:39:08;;;;;;;0.85;0.45;;;;;;;22.93;100.00;100986.50;2617226;54;20141;-65
2022/06/06 20:41:42;;;;;;;1.55;0.90;;;;;;;23.19;100.00;100984.53;2617293;54;20141;-66
2022/06/06 20:44:32;;;;;;;0.10;0.10;;;;;;;23.02;100.00;100981.06;2617170;54;20264;-65
2022/06/06 20:47:05;;;;;;;0.45;0.38;;;;;;;23.04;100.00;100968.47;2616859;54;20154;-65
2022/06/06 20:49:43;;;;;;;0.45;0.45;;;;;;;22.81;100.00;100975.44;2617329;39;20588;-65
2022/06/06 20:52:28;;;;;;;0.22;0.22;;;;;;;22.84;100.00;100973.28;2617264;54;20157;-66
2022/06/06 20:54:59;;;;;;;0.88;0.57;;;;;;;22.60;100.00;100967.94;2617034;54;20142;-65
2022/06/06 20:57:37;;;;;;;1.75;0.88;;;;;;;22.97;100.00;100974.59;2616998;54;20141;-65
2022/06/06 21:00:15;;;;;;;1.48;0.88;;;;;;;22.93;100.00;100974.13;2616849;54;20160;-66
2022/06/06 21:02:45;;;;;;;0.20;0.20;;;;;;;23.20;100.00;100972.94;2617086;54;20142;-65
2022/06/06 21:05:18;;;;;;;1.52;0.75;;;;;;;23.15;100.00;100972.63;2616823;54;20740;-66
2022/06/06 21:07:48;;;;;;;4.45;1.40;;;;;;;22.96;100.00;100972.94;2616895;47;20137;-66
2022/06/06 21:10:26;;;;;;;0.57;0.57;;;;;;;22.69;100.00;100974.94;2617033;47;20149;-65
2022/06/06 21:12:58;;;;;;;0.00;0.00;;;;;;;22.89;100.00;100975.44;2617458;39;20613;-66
2022/06/06 21:15:28;;;;;;;0.03;0.03;;;;;;;22.96;100.00;100960.53;2616801;54;20134;-67
2022/06/06 21:17:59;;;;;;;1.13;0.75;;;;;;;22.81;100.00;100955.09;2617557;39;20549;-67
2022/06/06 21:20:32;;;;;;;0.35;0.28;;;;;;;22.98;100.00;100958.56;2617046;54;20149;-66
2022/06/06 21:23:03;;;;;;;1.00;0.63;;;;;;;22.82;100.00;100964.69;2617404;39;20563;-66
2022/06/06 21:25:33;;;;;;;0.50;0.40;;;;;;;22.85;100.00;100972.28;2617029;47;20145;-66
2022/06/06 21:28:03;;;;;;;0.88;0.88;;;;;;;22.90;100.00;100968.31;2617410;39;20562;-66
2022/06/06 21:30:34;;;;;;;0.05;0.05;;;;;;;22.80;100.00;100968.47;2616878;54;20673;-66
2022/06/06 21:33:04;;;;;;;0.88;0.88;;;;;;;22.83;100.00;100968.97;2617055;54;20142;-66
2022/06/06 21:35:37;;;;;;;0.28;0.28;;;;;;;23.11;100.00;100971.31;2616967;54;20148;-67
2022/06/06 21:38:07;;;;;;;0.22;0.22;;;;;;;22.42;100.00;100963.78;2616865;54;20662;-66
2022/06/06 21:40:38;;;;;;;3.30;1.85;;;;;;;21.66;100.00;100962.00;2617023;46;20148;-65
2022/06/06 21:43:08;;;;;;;0.75;0.52;;;;;;;21.23;100.00;100964.66;2616944;54;20149;-65
2022/06/06 21:45:39;;;;;;;0.00;0.00;;;;;;;21.97;100.00;100954.38;2616595;54;20149;-66
2022/06/06 21:48:10;;;;;;;0.55;0.55;;;;;;;21.17;100.00;100962.66;2617295;54;20156;-67
2022/06/06 21:53:25;;;;;;;2.95;2.53;;;;;;;20.72;100.00;100973.28;2617416;54;20170;-67
2022/06/06 21:55:59;;;;;;;2.35;2.03;;;;;;;20.52;100.00;100962.06;2617298;54;20149;-65
2022/06/06 21:58:29;;;;;;;0.80;0.80;;;;;;;20.48;100.00;100960.72;2617281;47;20145;-66
2022/06/06 22:00:59;;;;;;;1.92;1.77;;;;;;;20.22;100.00;100959.75;2617169;54;20148;-66
2022/06/06 22:03:30;;;;;;;1.40;1.27;;;;;;;20.12;100.00;100969.50;2617506;47;20145;-66